createdAt,value
2018-08-11T00:00:48.424Z,93.07
2018-08-11T00:01:48.353Z,91.92
2018-08-11T00:02:48.280Z,93.74
2018-08-11T00:03:48.208Z,93.07
2018-08-11T00:04:48.136Z,93.45
2018-08-11T00:05:48.063Z,93.16
2018-08-11T00:06:47.990Z,93.26
2018-08-11T00:07:47.919Z,92.40
2018-08-11T00:08:47.846Z,91.92
2018-08-11T00:09:47.776Z,92.30
2018-08-11T00:10:47.701Z,92.49
2018-08-11T00:11:47.627Z,94.21
2018-08-11T00:12:47.556Z,93.26
2018-08-11T00:13:47.485Z,92.97
2018-08-11T00:14:47.410Z,93.54
2018-08-11T00:15:47.339Z,93.45
2018-08-11T00:16:47.272Z,92.01
2018-08-11T00:17:47.195Z,93.07
2018-08-11T00:18:47.121Z,93.83
2018-08-11T00:19:47.050Z,93.16
2018-08-11T00:20:46.978Z,93.45
2018-08-11T00:21:46.907Z,93.26
2018-08-11T00:22:46.832Z,94.02
2018-08-11T00:23:46.760Z,93.54
2018-08-11T00:24:46.689Z,94.21
2018-08-11T00:25:46.616Z,93.74
2018-08-11T00:26:46.542Z,94.12
2018-08-11T00:27:46.471Z,95.75
2018-08-11T00:28:46.400Z,94.93
2018-08-11T00:29:46.326Z,93.59
2018-08-11T00:30:46.254Z,94.45
2018-08-11T00:31:46.181Z,93.12
2018-08-11T00:32:46.112Z,95.03
2018-08-11T00:33:46.039Z,94.17
2018-08-11T00:34:45.963Z,94.65
2018-08-11T00:35:45.890Z,94.07
2018-08-11T00:36:45.819Z,92.92
2018-08-11T00:37:45.746Z,94.17
2018-08-11T00:38:45.676Z,93.30
2018-08-11T00:39:45.601Z,93.98
2018-08-11T00:40:45.532Z,93.74
2018-08-11T00:41:45.456Z,94.12
2018-08-11T00:42:45.389Z,93.84
2018-08-11T00:43:45.312Z,93.84
2018-08-11T00:44:45.237Z,94.21
2018-08-11T00:45:45.165Z,94.31
2018-08-11T00:46:45.094Z,93.84
2018-08-11T00:47:45.019Z,95.17
2018-08-11T00:48:44.950Z,95.07
2018-08-11T00:49:44.874Z,95.27
2018-08-11T00:50:44.800Z,95.17
2018-08-11T00:51:44.727Z,95.84
2018-08-11T00:52:44.654Z,94.50
2018-08-11T00:53:44.584Z,94.70
2018-08-11T00:54:44.508Z,94.12
2018-08-11T00:55:44.436Z,95.27
2018-08-11T00:56:44.364Z,95.94
2018-08-11T00:57:44.290Z,95.22
2018-08-11T00:58:44.218Z,95.79
2018-08-11T00:59:44.143Z,95.22
2018-08-11T01:00:44.071Z,95.41
2018-08-11T01:01:43.999Z,95.41
2018-08-11T01:02:43.928Z,96.37
2018-08-11T01:03:43.853Z,96.18
2018-08-11T01:04:43.779Z,96.84
2018-08-11T01:05:43.705Z,95.79
2018-08-11T01:06:43.632Z,97.13
2018-08-11T01:07:43.562Z,96.94
2018-08-11T01:08:43.486Z,97.04
2018-08-11T01:09:43.414Z,96.47
2018-08-11T01:10:43.366Z,96.47
2018-08-11T01:11:43.266Z,96.94
2018-08-11T01:12:43.194Z,95.98
2018-08-11T01:13:43.124Z,96.56
2018-08-11T01:14:43.046Z,96.56
2018-08-11T01:15:42.975Z,97.90
2018-08-11T01:16:42.901Z,97.99
2018-08-11T01:17:42.830Z,96.75
2018-08-11T01:18:42.756Z,97.23
2018-08-11T01:19:42.681Z,96.75
2018-08-11T01:20:42.609Z,97.23
2018-08-11T01:21:42.557Z,96.75
2018-08-11T01:22:42.464Z,97.13
2018-08-11T01:23:42.388Z,96.94
2018-08-11T01:24:42.315Z,96.84
2018-08-11T01:25:42.250Z,96.47
2018-08-11T01:26:42.169Z,96.66
2018-08-11T01:27:42.097Z,96.47
2018-08-11T01:28:42.023Z,97.80
2018-08-11T01:29:41.951Z,97.04
2018-08-11T01:30:41.878Z,96.27
2018-08-11T01:31:41.804Z,96.94
2018-08-11T01:32:41.736Z,97.42
2018-08-11T01:33:41.658Z,96.94
2018-08-11T01:34:41.585Z,97.42
2018-08-11T01:35:41.512Z,97.04
2018-08-11T01:36:41.437Z,96.18
2018-08-11T01:37:41.364Z,97.66
2018-08-11T01:38:41.292Z,95.84
2018-08-11T01:39:41.220Z,96.61
2018-08-11T01:40:41.147Z,96.61
2018-08-11T01:41:41.074Z,95.75
2018-08-11T01:42:40.999Z,96.03
2018-08-11T01:43:40.928Z,95.75
2018-08-11T01:44:40.853Z,96.89
2018-08-11T01:45:40.781Z,96.13
2018-08-11T01:46:40.706Z,96.70
2018-08-11T01:47:40.634Z,97.28
2018-08-11T01:48:40.561Z,96.80
2018-08-11T01:49:40.504Z,95.27
2018-08-11T01:50:40.415Z,97.95
2018-08-11T01:51:40.346Z,96.51
2018-08-11T01:52:40.270Z,96.61
2018-08-11T01:53:40.197Z,97.66
2018-08-11T01:54:40.123Z,97.18
2018-08-11T01:55:40.051Z,96.22
2018-08-11T01:56:39.981Z,96.61
2018-08-11T01:57:39.906Z,97.18
2018-08-11T01:58:39.831Z,95.46
2018-08-11T01:59:39.759Z,94.98
2018-08-11T02:00:39.686Z,95.07
2018-08-11T02:01:39.613Z,95.51
2018-08-11T02:02:39.539Z,96.94
2018-08-11T02:03:39.469Z,95.79
2018-08-11T02:04:39.395Z,94.45
2018-08-11T02:05:39.321Z,94.07
2018-08-11T02:06:39.248Z,94.36
2018-08-11T02:07:39.175Z,94.17
2018-08-11T02:08:39.102Z,93.88
2018-08-11T02:09:39.033Z,93.98
2018-08-11T02:10:38.955Z,93.12
2018-08-11T02:11:38.885Z,93.88
2018-08-11T02:12:38.810Z,93.30
2018-08-11T02:13:38.740Z,92.44
2018-08-11T02:14:38.664Z,93.69
2018-08-11T02:15:38.594Z,93.88
2018-08-11T02:16:38.519Z,93.50
2018-08-11T02:17:38.446Z,93.21
2018-08-11T02:18:38.373Z,95.22
2018-08-11T02:19:38.301Z,94.31
2018-08-11T02:20:38.229Z,95.61
2018-08-11T02:21:38.156Z,93.26
2018-08-11T02:22:38.083Z,90.44
2018-08-11T02:23:38.011Z,90.86
2018-08-11T02:24:37.944Z,92.49
2018-08-11T02:25:37.866Z,91.72
2018-08-11T02:26:37.791Z,91.63
2018-08-11T02:27:37.722Z,90.39
2018-08-11T02:28:37.648Z,91.72
2018-08-11T02:29:37.576Z,92.30
2018-08-11T02:30:37.503Z,92.78
2018-08-11T02:31:37.432Z,92.01
2018-08-11T02:32:37.359Z,92.35
2018-08-11T02:33:37.291Z,90.48
2018-08-11T02:34:37.213Z,90.91
2018-08-11T02:35:37.139Z,91.34
2018-08-11T02:36:37.074Z,90.48
2018-08-11T02:37:36.995Z,90.67
2018-08-11T02:38:36.923Z,89.66
2018-08-11T02:39:36.851Z,91.58
2018-08-11T02:40:36.777Z,91.67
2018-08-11T02:41:36.706Z,88.03
2018-08-11T02:42:36.633Z,90.62
2018-08-11T02:43:36.710Z,91.19
2018-08-11T02:44:36.488Z,91.00
2018-08-11T02:45:36.416Z,91.58
2018-08-11T02:46:36.345Z,91.10
2018-08-11T02:47:36.272Z,91.00
2018-08-11T02:48:36.202Z,90.91
2018-08-11T02:49:36.129Z,91.00
2018-08-11T02:50:36.054Z,90.62
2018-08-11T02:51:35.981Z,92.25
2018-08-11T02:52:35.909Z,91.29
2018-08-11T02:53:35.837Z,90.14
2018-08-11T02:54:35.768Z,88.80
2018-08-11T02:55:35.692Z,87.94
2018-08-11T02:56:35.622Z,87.55
2018-08-11T02:57:35.549Z,88.51
2018-08-11T02:58:35.476Z,86.79
2018-08-11T02:59:35.404Z,88.75
2018-08-11T03:00:35.332Z,89.80
2018-08-11T03:01:35.261Z,87.37
2018-08-11T03:02:35.275Z,86.83
2018-08-11T03:03:35.116Z,87.31
2018-08-11T03:04:35.046Z,87.12
2018-08-11T03:05:34.973Z,88.27
2018-08-11T03:06:34.900Z,87.21
2018-08-11T03:07:34.828Z,88.84
2018-08-11T03:08:34.757Z,89.32
2018-08-11T03:09:35.035Z,86.83
2018-08-11T03:10:34.622Z,86.83
2018-08-11T03:11:34.540Z,87.31
2018-08-11T03:12:34.468Z,86.31
2018-08-11T03:13:34.397Z,85.21
2018-08-11T03:14:34.324Z,87.12
2018-08-11T03:15:34.252Z,87.41
2018-08-11T03:16:34.180Z,86.45
2018-08-11T03:17:34.108Z,88.23
2018-08-11T03:18:34.036Z,87.94
2018-08-11T03:19:33.964Z,86.60
2018-08-11T03:20:33.892Z,87.55
2018-08-11T03:21:33.820Z,86.60
2018-08-11T03:22:33.752Z,88.13
2018-08-11T03:23:33.675Z,87.37
2018-08-11T03:24:33.603Z,89.47
2018-08-11T03:25:33.531Z,87.08
2018-08-11T03:26:33.459Z,87.74
2018-08-11T03:27:33.387Z,86.98
2018-08-11T03:28:33.315Z,88.28
2018-08-11T03:29:33.242Z,88.47
2018-08-11T03:30:33.181Z,86.31
2018-08-11T03:31:33.099Z,86.88
2018-08-11T03:32:33.028Z,87.94
2018-08-11T03:33:32.958Z,88.18
2018-08-11T03:34:32.881Z,87.61
2018-08-11T03:35:32.809Z,89.52
2018-08-11T03:36:32.736Z,88.66
2018-08-11T03:37:32.664Z,87.90
2018-08-11T03:38:32.590Z,87.32
2018-08-11T03:39:32.520Z,87.90
2018-08-11T03:40:32.446Z,89.43
2018-08-11T03:41:32.375Z,89.76
2018-08-11T03:42:32.302Z,89.29
2018-08-11T03:43:32.230Z,88.62
2018-08-11T03:44:32.157Z,88.33
2018-08-11T03:45:32.086Z,88.62
2018-08-11T03:46:32.011Z,87.80
2018-08-11T03:47:31.940Z,87.61
2018-08-11T03:48:31.867Z,87.80
2018-08-11T03:49:31.797Z,87.13
2018-08-11T03:50:31.721Z,88.28
2018-08-11T03:51:31.649Z,88.37
2018-08-11T03:52:31.636Z,88.71
2018-08-11T03:53:31.505Z,89.00
2018-08-11T03:54:31.432Z,87.95
2018-08-11T03:55:31.361Z,89.19
2018-08-11T03:56:31.286Z,90.15
2018-08-11T03:57:31.214Z,90.15
2018-08-11T03:58:31.141Z,90.53
2018-08-11T03:59:31.069Z,90.82
2018-08-11T04:00:30.997Z,90.72
2018-08-11T04:01:30.925Z,91.01
2018-08-11T04:02:30.853Z,90.63
2018-08-11T04:03:30.781Z,91.63
2018-08-11T04:04:30.705Z,91.53
2018-08-11T04:05:30.635Z,91.83
2018-08-11T04:06:30.612Z,91.83
2018-08-11T04:07:30.489Z,92.21
2018-08-11T04:08:30.416Z,92.02
2018-08-11T04:09:30.345Z,92.11
2018-08-11T04:10:30.268Z,92.78
2018-08-11T04:11:30.195Z,92.88
2018-08-11T04:12:30.124Z,93.88
2018-08-11T04:13:30.052Z,94.46
2018-08-11T04:14:29.978Z,93.50
2018-08-11T04:15:29.905Z,95.12
2018-08-11T04:16:29.832Z,94.93
2018-08-11T04:17:29.759Z,94.36
2018-08-11T04:18:29.687Z,94.46
2018-08-11T04:19:29.611Z,95.79
2018-08-11T04:20:29.541Z,95.22
2018-08-11T04:21:29.466Z,96.18
2018-08-11T04:22:29.393Z,96.18
2018-08-11T04:23:29.319Z,95.51
2018-08-11T04:24:29.247Z,94.93
2018-08-11T04:25:29.176Z,95.32
2018-08-11T04:26:29.099Z,95.70
2018-08-11T04:27:29.026Z,94.26
2018-08-11T04:28:28.954Z,93.60
2018-08-11T04:29:28.881Z,93.26
2018-08-11T04:30:28.807Z,92.97
2018-08-11T04:31:28.734Z,92.78
2018-08-11T04:32:28.661Z,92.97
2018-08-11T04:33:28.588Z,93.26
2018-08-11T04:34:28.513Z,93.07
2018-08-11T04:35:28.440Z,91.92
2018-08-11T04:36:28.369Z,92.49
2018-08-11T04:37:28.295Z,92.97
2018-08-11T04:38:28.220Z,92.88
2018-08-11T04:39:28.149Z,93.07
2018-08-11T04:40:28.075Z,93.26
2018-08-11T04:41:28.001Z,92.11
2018-08-11T04:42:27.928Z,91.25
2018-08-11T04:43:27.855Z,93.26
2018-08-11T04:44:27.782Z,93.26
2018-08-11T04:45:27.709Z,93.84
2018-08-11T04:46:27.636Z,93.16
2018-08-11T04:47:27.562Z,93.74
2018-08-11T04:48:27.490Z,93.26
2018-08-11T04:49:27.417Z,92.59
2018-08-11T04:50:27.342Z,93.64
2018-08-11T04:51:27.269Z,93.64
2018-08-11T04:52:27.199Z,94.41
2018-08-11T04:53:27.125Z,94.31
2018-08-11T04:54:27.051Z,92.69
2018-08-11T04:55:26.977Z,94.60
2018-08-11T04:56:26.904Z,94.31
2018-08-11T04:57:26.840Z,94.60
2018-08-11T04:58:26.762Z,94.79
2018-08-11T04:59:26.684Z,94.02
2018-08-11T05:00:26.612Z,93.74
2018-08-11T05:01:26.541Z,94.79
2018-08-11T05:02:26.471Z,94.79
2018-08-11T05:03:26.395Z,95.84
2018-08-11T05:04:26.320Z,94.70
2018-08-11T05:05:26.246Z,95.56
2018-08-11T05:06:26.173Z,93.55
2018-08-11T05:07:26.100Z,94.02
2018-08-11T05:08:26.028Z,93.93
2018-08-11T05:09:25.955Z,94.17
2018-08-11T05:10:25.881Z,94.07
2018-08-11T05:11:25.807Z,93.30
2018-08-11T05:12:26.084Z,94.17
2018-08-11T05:13:25.663Z,93.02
2018-08-11T05:14:25.589Z,93.30
2018-08-11T05:15:25.517Z,91.77
2018-08-11T05:16:25.443Z,91.63
2018-08-11T05:17:25.370Z,91.68
2018-08-11T05:18:25.297Z,91.53
2018-08-11T05:19:25.227Z,91.25
2018-08-11T05:20:25.153Z,90.67
2018-08-11T05:21:25.081Z,90.58
2018-08-11T05:22:25.006Z,91.63
2018-08-11T05:23:24.937Z,91.44
2018-08-11T05:24:24.866Z,91.92
2018-08-11T05:25:24.789Z,90.19
2018-08-11T05:26:24.816Z,88.76
2018-08-11T05:27:24.644Z,88.99
2018-08-11T05:28:24.571Z,89.95
2018-08-11T05:29:24.498Z,88.51
2018-08-11T05:30:24.425Z,87.46
2018-08-11T05:31:24.353Z,88.42
2018-08-11T05:32:24.280Z,88.51
2018-08-11T05:33:24.208Z,89.37
2018-08-11T05:34:24.139Z,88.23
2018-08-11T05:35:24.065Z,86.69
2018-08-11T05:36:23.990Z,86.88
2018-08-11T05:37:23.917Z,88.51
2018-08-11T05:38:23.845Z,90.62
2018-08-11T05:39:23.773Z,89.37
2018-08-11T05:40:23.700Z,90.14
2018-08-11T05:41:23.627Z,91.29
2018-08-11T05:42:23.555Z,91.19
2018-08-11T05:43:23.481Z,91.25
2018-08-11T05:44:23.411Z,90.77
2018-08-11T05:45:23.339Z,91.05
2018-08-11T05:46:23.266Z,93.16
2018-08-11T05:47:23.193Z,90.77
2018-08-11T05:48:23.121Z,90.39
2018-08-11T05:49:23.048Z,89.57
2018-08-11T05:50:22.975Z,88.23
2018-08-11T05:51:22.903Z,88.51
2018-08-11T05:52:22.831Z,89.37
2018-08-11T05:53:22.758Z,88.13
2018-08-11T05:54:22.685Z,87.74
2018-08-11T05:55:22.614Z,87.12
2018-08-11T05:56:22.541Z,87.50
2018-08-11T05:57:22.469Z,87.41
2018-08-11T05:58:22.398Z,85.88
2018-08-11T05:59:22.325Z,86.45
2018-08-11T06:00:22.253Z,85.30
2018-08-11T06:01:22.181Z,86.45
2018-08-11T06:02:22.108Z,86.16
2018-08-11T06:03:22.035Z,86.64
2018-08-11T06:04:21.965Z,86.54
2018-08-11T06:05:21.891Z,85.68
2018-08-11T06:06:21.817Z,85.53
2018-08-11T06:07:21.746Z,85.05
2018-08-11T06:08:21.673Z,85.34
2018-08-11T06:09:21.603Z,84.19
2018-08-11T06:10:21.572Z,84.81
2018-08-11T06:11:21.457Z,83.75
2018-08-11T06:12:21.385Z,83.37
2018-08-11T06:13:21.313Z,83.56
2018-08-11T06:14:21.240Z,83.47
2018-08-11T06:15:21.169Z,83.98
2018-08-11T06:16:21.096Z,83.03
2018-08-11T06:17:21.026Z,82.07
2018-08-11T06:18:20.952Z,82.54
2018-08-11T06:19:20.881Z,81.49
2018-08-11T06:20:20.811Z,82.45
2018-08-11T06:21:20.739Z,81.68
2018-08-11T06:22:20.668Z,80.73
2018-08-11T06:23:20.597Z,81.40
2018-08-11T06:24:20.523Z,83.12
2018-08-11T06:25:20.453Z,83.41
2018-08-11T06:26:20.380Z,82.84
2018-08-11T06:27:20.309Z,82.16
2018-08-11T06:28:20.236Z,81.10
2018-08-11T06:29:20.166Z,82.45
2018-08-11T06:30:20.093Z,81.72
2018-08-11T06:31:20.086Z,81.63
2018-08-11T06:32:19.959Z,82.10
2018-08-11T06:33:19.880Z,82.49
2018-08-11T06:34:19.808Z,81.82
2018-08-11T06:35:19.737Z,80.61
2018-08-11T06:36:19.666Z,81.09
2018-08-11T06:37:19.595Z,81.52
2018-08-11T06:38:19.525Z,79.88
2018-08-11T06:39:19.452Z,77.38
2018-08-11T06:40:19.382Z,80.55
2018-08-11T06:41:19.312Z,77.90
2018-08-11T06:42:19.239Z,77.76
2018-08-11T06:43:19.169Z,77.13
2018-08-11T06:44:19.100Z,77.86
2018-08-11T06:45:19.028Z,79.98
2018-08-11T06:46:18.957Z,76.52
2018-08-11T06:47:18.886Z,77.76
2018-08-11T06:48:18.820Z,78.11
2018-08-11T06:49:18.745Z,79.02
2018-08-11T06:50:18.675Z,78.83
2018-08-11T06:51:18.605Z,78.63
2018-08-11T06:52:18.536Z,78.40
2018-08-11T06:53:18.464Z,77.92
2018-08-11T06:54:18.393Z,78.30
2018-08-11T06:55:18.322Z,77.53
2018-08-11T06:56:18.252Z,78.02
2018-08-11T06:57:18.182Z,78.59
2018-08-11T06:58:18.110Z,78.59
2018-08-11T06:59:18.039Z,78.98
2018-08-11T07:00:17.969Z,79.65
2018-08-11T07:01:17.899Z,78.59
2018-08-11T07:02:17.831Z,78.59
2018-08-11T07:03:17.756Z,79.07
2018-08-11T07:04:17.690Z,79.27
2018-08-11T07:05:17.616Z,80.42
2018-08-11T07:06:17.544Z,79.75
2018-08-11T07:07:17.475Z,79.65
2018-08-11T07:08:17.403Z,79.17
2018-08-11T07:09:17.332Z,78.69
2018-08-11T07:10:17.260Z,79.55
2018-08-11T07:11:17.190Z,78.78
2018-08-11T07:12:17.123Z,79.46
2018-08-11T07:13:17.051Z,80.13
2018-08-11T07:14:16.978Z,80.71
2018-08-11T07:15:16.971Z,79.75
2018-08-11T07:16:16.836Z,79.75
2018-08-11T07:17:16.771Z,80.13
2018-08-11T07:18:16.695Z,78.59
2018-08-11T07:19:16.626Z,79.36
2018-08-11T07:20:16.554Z,80.32
2018-08-11T07:21:16.506Z,79.55
2018-08-11T07:22:16.412Z,79.84
2018-08-11T07:23:16.346Z,79.75
2018-08-11T07:24:16.272Z,78.78
2018-08-11T07:25:16.243Z,79.46
2018-08-11T07:26:16.132Z,80.51
2018-08-11T07:27:16.058Z,80.71
2018-08-11T07:28:15.988Z,80.13
2018-08-11T07:29:15.920Z,79.27
2018-08-11T07:30:15.898Z,78.98
2018-08-11T07:31:15.775Z,80.04
2018-08-11T07:32:15.705Z,79.46
2018-08-11T07:33:15.635Z,79.79
2018-08-11T07:34:15.563Z,79.02
2018-08-11T07:35:15.492Z,79.30
2018-08-11T07:36:15.491Z,79.98
2018-08-11T07:37:15.353Z,80.32
2018-08-11T07:38:15.280Z,80.42
2018-08-11T07:39:15.211Z,81.04
2018-08-11T07:40:15.140Z,80.65
2018-08-11T07:41:15.070Z,80.51
2018-08-11T07:42:14.998Z,81.48
2018-08-11T07:43:14.928Z,80.94
2018-08-11T07:44:14.857Z,82.19
2018-08-11T07:45:14.787Z,81.42
2018-08-11T07:46:14.719Z,81.90
2018-08-11T07:47:14.646Z,82.09
2018-08-11T07:48:14.578Z,81.13
2018-08-11T07:49:14.506Z,81.61
2018-08-11T07:50:14.441Z,82.67
2018-08-11T07:51:14.365Z,82.29
2018-08-11T07:52:14.294Z,81.90
2018-08-11T07:53:14.224Z,82.29
2018-08-11T07:54:14.154Z,82.38
2018-08-11T07:55:14.084Z,82.29
2018-08-11T07:56:14.012Z,81.99
2018-08-11T07:57:13.942Z,82.09
2018-08-11T07:58:13.872Z,83.25
2018-08-11T07:59:13.801Z,82.57
2018-08-11T08:00:13.731Z,82.96
2018-08-11T08:01:13.705Z,81.61
2018-08-11T08:02:13.591Z,82.86
2018-08-11T08:03:13.520Z,81.23
2018-08-11T08:04:13.449Z,81.61
2018-08-11T08:05:13.381Z,82.48
2018-08-11T08:06:13.308Z,82.57
2018-08-11T08:07:13.241Z,81.81
2018-08-11T08:08:13.171Z,81.84
2018-08-11T08:09:13.098Z,83.00
2018-08-11T08:10:13.025Z,80.88
2018-08-11T08:11:12.960Z,80.40
2018-08-11T08:12:12.887Z,80.75
2018-08-11T08:13:12.816Z,80.46
2018-08-11T08:14:12.746Z,80.84
2018-08-11T08:15:12.674Z,80.84
2018-08-11T08:16:12.604Z,80.55
2018-08-11T08:17:12.533Z,80.36
2018-08-11T08:18:12.463Z,80.55
2018-08-11T08:19:12.394Z,80.84
2018-08-11T08:20:12.322Z,80.98
2018-08-11T08:21:12.251Z,81.84
2018-08-11T08:22:12.181Z,82.46
2018-08-11T08:23:12.109Z,80.44
2018-08-11T08:24:12.039Z,79.48
2018-08-11T08:25:11.969Z,81.02
2018-08-11T08:26:12.001Z,76.01
2018-08-11T08:27:11.827Z,78.52
2018-08-11T08:28:11.757Z,79.86
2018-08-11T08:29:11.687Z,79.00
2018-08-11T08:30:11.615Z,78.23
2018-08-11T08:31:11.545Z,76.59
2018-08-11T08:32:11.476Z,79.48
2018-08-11T08:33:11.404Z,80.15
2018-08-11T08:34:11.334Z,76.31
2018-08-11T08:35:11.263Z,77.65
2018-08-11T08:36:11.194Z,80.35
2018-08-11T08:37:11.123Z,80.73
2018-08-11T08:38:11.055Z,77.84
2018-08-11T08:39:10.984Z,78.61
2018-08-11T08:40:10.912Z,78.42
2018-08-11T08:41:10.843Z,79.77
2018-08-11T08:42:10.770Z,79.86
2018-08-11T08:43:10.702Z,78.36
2018-08-11T08:44:10.630Z,78.03
2018-08-11T08:45:10.561Z,78.52
2018-08-11T08:46:10.490Z,79.77
2018-08-11T08:47:10.420Z,78.81
2018-08-11T08:48:10.351Z,79.48
2018-08-11T08:49:10.281Z,79.77
2018-08-11T08:50:10.209Z,80.35
2018-08-11T08:51:10.139Z,79.86
2018-08-11T08:52:10.070Z,80.06
2018-08-11T08:53:10.034Z,80.06
2018-08-11T08:54:09.933Z,80.02
2018-08-11T08:55:09.859Z,80.60
2018-08-11T08:56:09.790Z,80.50
2018-08-11T08:57:09.719Z,80.50
2018-08-11T08:58:09.647Z,80.40
2018-08-11T08:59:09.649Z,79.86
2018-08-11T09:00:09.507Z,79.38
2018-08-11T09:01:09.438Z,78.42
2018-08-11T09:02:09.369Z,78.90
2018-08-11T09:03:09.298Z,77.17
2018-08-11T09:04:09.228Z,78.13
2018-08-11T09:05:09.158Z,78.03
2018-08-11T09:06:09.086Z,77.36
2018-08-11T09:07:09.017Z,77.65
2018-08-11T09:08:08.946Z,76.69
2018-08-11T09:09:08.877Z,77.08
2018-08-11T09:10:08.810Z,76.34
2018-08-11T09:11:08.736Z,75.48
2018-08-11T09:12:08.666Z,76.59
2018-08-11T09:13:08.597Z,77.08
2018-08-11T09:14:08.525Z,77.75
2018-08-11T09:15:08.455Z,77.01
2018-08-11T09:16:08.387Z,74.32
2018-08-11T09:17:08.315Z,77.01
2018-08-11T09:18:08.245Z,75.38
2018-08-11T09:19:08.176Z,75.03
2018-08-11T09:20:08.106Z,73.94
2018-08-11T09:21:08.036Z,77.63
2018-08-11T09:22:07.965Z,74.93
2018-08-11T09:23:07.897Z,74.16
2018-08-11T09:24:07.826Z,74.07
2018-08-11T09:25:07.756Z,71.76
2018-08-11T09:26:07.686Z,73.74
2018-08-11T09:27:07.616Z,73.46
2018-08-11T09:28:07.547Z,75.86
2018-08-11T09:29:07.481Z,75.38
2018-08-11T09:30:07.407Z,74.61
2018-08-11T09:31:07.337Z,76.53
2018-08-11T09:32:07.268Z,74.93
2018-08-11T09:33:07.197Z,73.20
2018-08-11T09:34:07.127Z,73.01
2018-08-11T09:35:07.059Z,74.07
2018-08-11T09:36:06.989Z,75.23
2018-08-11T09:37:06.918Z,72.14
2018-08-11T09:38:06.850Z,72.56
2018-08-11T09:39:06.779Z,72.18
2018-08-11T09:40:06.709Z,70.70
2018-08-11T09:41:06.639Z,72.81
2018-08-11T09:42:06.569Z,69.73
2018-08-11T09:43:06.500Z,69.93
2018-08-11T09:44:06.447Z,70.41
2018-08-11T09:45:06.361Z,71.85
2018-08-11T09:46:06.320Z,70.79
2018-08-11T09:47:06.221Z,69.45
2018-08-11T09:48:06.151Z,68.71
2018-08-11T09:49:06.081Z,68.61
2018-08-11T09:50:06.012Z,68.52
2018-08-11T09:51:05.941Z,66.85
2018-08-11T09:52:05.872Z,66.69
2018-08-11T09:53:05.802Z,66.11
2018-08-11T09:54:05.730Z,66.11
2018-08-11T09:55:05.662Z,67.26
2018-08-11T09:56:05.592Z,64.56
2018-08-11T09:57:05.524Z,65.81
2018-08-11T09:58:05.462Z,64.56
2018-08-11T09:59:05.382Z,63.89
2018-08-11T10:00:05.317Z,62.63
2018-08-11T10:01:05.246Z,63.12
2018-08-11T10:02:05.175Z,62.93
2018-08-11T10:03:05.104Z,63.89
2018-08-11T10:04:05.035Z,64.76
2018-08-11T10:05:04.994Z,65.91
2018-08-11T10:06:04.899Z,63.50
2018-08-11T10:07:04.826Z,66.88
2018-08-11T10:08:04.757Z,64.56
2018-08-11T10:09:04.687Z,65.24
2018-08-11T10:10:04.617Z,66.20
2018-08-11T10:11:04.548Z,62.54
2018-08-11T10:12:04.507Z,62.93
2018-08-11T10:13:04.409Z,63.12
2018-08-11T10:14:04.339Z,61.87
2018-08-11T10:15:04.272Z,62.45
2018-08-11T10:16:04.200Z,62.54
2018-08-11T10:17:04.132Z,61.10
2018-08-11T10:18:04.061Z,61.48
2018-08-11T10:19:03.995Z,62.06
2018-08-11T10:20:03.921Z,62.93
2018-08-11T10:21:03.852Z,61.77
2018-08-11T10:22:03.783Z,61.58
2018-08-11T10:23:03.715Z,61.96
2018-08-11T10:24:03.644Z,61.77
2018-08-11T10:25:03.575Z,61.58
2018-08-11T10:26:03.505Z,62.63
2018-08-11T10:27:03.436Z,61.68
2018-08-11T10:28:03.367Z,60.71
2018-08-11T10:29:03.298Z,60.52
2018-08-11T10:30:03.277Z,60.80
2018-08-11T10:31:03.160Z,60.71
2018-08-11T10:32:03.090Z,62.06
2018-08-11T10:33:03.020Z,62.25
2018-08-11T10:34:02.950Z,62.54
2018-08-11T10:35:02.882Z,63.70
2018-08-11T10:36:02.813Z,63.70
2018-08-11T10:37:02.741Z,62.63
2018-08-11T10:38:02.672Z,61.22
2018-08-11T10:39:02.603Z,60.45
2018-08-11T10:40:02.551Z,60.48
2018-08-11T10:41:02.465Z,60.38
2018-08-11T10:42:02.396Z,60.68
2018-08-11T10:43:02.326Z,60.38
2018-08-11T10:44:02.256Z,60.13
2018-08-11T10:45:02.188Z,59.35
2018-08-11T10:46:02.118Z,58.87
2018-08-11T10:47:02.055Z,58.29
2018-08-11T10:48:01.980Z,58.10
2018-08-11T10:49:01.911Z,58.22
2018-08-11T10:50:01.842Z,57.96
2018-08-11T10:51:01.772Z,57.77
2018-08-11T10:52:01.704Z,56.32
2018-08-11T10:53:01.636Z,57.12
2018-08-11T10:54:01.567Z,56.15
2018-08-11T10:55:01.497Z,55.07
2018-08-11T10:56:01.532Z,56.32
2018-08-11T10:57:01.361Z,56.32
2018-08-11T10:58:01.291Z,56.22
2018-08-11T10:59:01.224Z,57.19
2018-08-11T11:00:01.155Z,56.13
2018-08-11T11:01:01.088Z,55.83
2018-08-11T11:02:01.018Z,54.97
2018-08-11T11:03:00.950Z,54.87
2018-08-11T11:04:00.881Z,56.61
2018-08-11T11:05:00.814Z,55.83
2018-08-11T11:06:00.744Z,55.71
2018-08-11T11:07:00.675Z,56.10
2018-08-11T11:08:00.635Z,56.07
2018-08-11T11:09:00.543Z,56.36
2018-08-11T11:10:00.471Z,56.56
2018-08-11T11:11:00.402Z,56.16
2018-08-11T11:12:00.335Z,57.04
2018-08-11T11:13:00.266Z,57.81
2018-08-11T11:14:00.205Z,57.26
2018-08-11T11:15:00.130Z,55.33
2018-08-11T11:16:00.062Z,54.75
2018-08-11T11:16:59.994Z,55.71
2018-08-11T11:17:59.924Z,55.59
2018-08-11T11:18:59.856Z,55.59
2018-08-11T11:19:59.789Z,55.10
2018-08-11T11:20:59.721Z,56.29
2018-08-11T11:21:59.656Z,56.48
2018-08-11T11:22:59.585Z,55.83
2018-08-11T11:23:59.517Z,55.19
2018-08-11T11:24:59.449Z,54.93
2018-08-11T11:25:59.380Z,54.53
2018-08-11T11:26:59.312Z,54.05
2018-08-11T11:27:59.245Z,53.57
2018-08-11T11:28:59.178Z,52.67
2018-08-11T11:29:59.109Z,53.38
2018-08-11T11:30:59.042Z,52.22
2018-08-11T11:31:58.979Z,51.93
2018-08-11T11:32:58.909Z,52.70
2018-08-11T11:33:58.841Z,52.51
2018-08-11T11:34:58.772Z,52.70
2018-08-11T11:35:58.706Z,53.11
2018-08-11T11:36:58.639Z,50.98
2018-08-11T11:37:58.570Z,51.78
2018-08-11T11:38:58.508Z,51.04
2018-08-11T11:39:58.437Z,50.62
2018-08-11T11:40:58.371Z,51.52
2018-08-11T11:41:58.305Z,50.55
2018-08-11T11:42:58.237Z,50.16
2018-08-11T11:43:58.170Z,49.97
2018-08-11T11:44:58.106Z,48.61
2018-08-11T11:45:58.039Z,48.54
2018-08-11T11:46:58.001Z,47.72
2018-08-11T11:47:57.906Z,46.60
2018-08-11T11:48:57.841Z,46.60
2018-08-11T11:49:57.775Z,45.24
2018-08-11T11:50:57.712Z,47.28
2018-08-11T11:51:57.648Z,47.74
2018-08-11T11:52:57.584Z,45.65
2018-08-11T11:53:57.519Z,46.11
2018-08-11T11:54:57.455Z,43.50
2018-08-11T11:55:57.398Z,42.53
2018-08-11T11:56:57.332Z,43.34
2018-08-11T11:57:57.267Z,44.60
2018-08-11T11:58:57.207Z,44.21
2018-08-11T11:59:57.227Z,44.29
2018-08-11T12:00:57.085Z,44.99
2018-08-11T12:01:57.041Z,45.51
2018-08-11T12:02:56.961Z,46.89
2018-08-11T12:03:56.900Z,48.39
2018-08-11T12:04:56.838Z,49.92
2018-08-11T12:05:56.849Z,50.40
2018-08-11T12:06:56.713Z,49.95
2018-08-11T12:07:56.652Z,50.70
2018-08-11T12:08:56.594Z,51.86
2018-08-11T12:09:56.527Z,51.73
2018-08-11T12:10:56.464Z,51.13
2018-08-11T12:11:56.400Z,50.38
2018-08-11T12:12:56.337Z,48.97
2018-08-11T12:13:56.272Z,46.21
2018-08-11T12:14:56.208Z,44.85
2018-08-11T12:15:56.145Z,44.95
2018-08-11T12:16:56.084Z,44.31
2018-08-11T12:17:56.017Z,44.02
2018-08-11T12:18:55.954Z,43.34
2018-08-11T12:19:55.891Z,44.78
2018-08-11T12:20:55.828Z,47.72
2018-08-11T12:21:55.764Z,48.61
2018-08-11T12:22:55.701Z,47.52
2018-08-11T12:23:55.639Z,45.43
2018-08-11T12:24:55.576Z,44.65
2018-08-11T12:25:55.513Z,43.02
2018-08-11T12:26:55.450Z,42.81
2018-08-11T12:27:55.387Z,44.49
2018-08-11T12:28:55.326Z,44.75
2018-08-11T12:29:55.260Z,44.45
2018-08-11T12:30:55.201Z,40.47
2018-08-11T12:31:55.135Z,40.47
2018-08-11T12:32:55.073Z,41.67
2018-08-11T12:33:55.014Z,39.53
2018-08-11T12:34:54.948Z,39.84
2018-08-11T12:35:54.885Z,39.98
2018-08-11T12:36:54.825Z,40.68
2018-08-11T12:37:54.776Z,41.20
2018-08-11T12:38:54.703Z,39.78
2018-08-11T12:39:54.643Z,38.04
2018-08-11T12:40:54.585Z,37.43
2018-08-11T12:41:54.521Z,38.49
2018-08-11T12:42:54.461Z,38.28
2018-08-11T12:43:54.401Z,39.34
2018-08-11T12:44:54.342Z,39.47
2018-08-11T12:45:54.339Z,38.30
2018-08-11T12:46:54.224Z,38.69
2018-08-11T12:47:54.164Z,40.85
2018-08-11T12:48:54.104Z,41.24
2018-08-11T12:49:54.056Z,40.89
2018-08-11T12:50:53.984Z,39.62
2018-08-11T12:51:53.930Z,40.27